sensor_id;sensor_type;location;lat;lon;timestamp;P1;durP1;ratioP1;P2;durP2;ratioP2
6282;SDS011;3174;53.486;9.568;2023-11-21T00:02:01;11.80;;;5.73;;
6282;SDS011;3174;53.486;9.568;2023-11-21T00:04:31;14.60;;;5.50;;
6282;SDS011;3174;53.486;9.568;2023-11-21T00:06:59;12.53;;;5.47;;
6282;SDS011;3174;53.486;9.568;2023-11-21T00:09:27;13.50;;;5.70;;
6282;SDS011;3174;53.486;9.568;2023-11-21T00:11:54;12.57;;;5.77;;
6282;SDS011;3174;53.486;9.568;2023-11-21T00:14:23;13.90;;;6.17;;
6282;SDS011;3174;53.486;9.568;2023-11-21T00:16:52;12.10;;;4.93;;
6282;SDS011;3174;53.486;9.568;2023-11-21T00:19:20;13.30;;;6.03;;
6282;SDS011;3174;53.486;9.568;2023-11-21T00:21:48;14.03;;;6.80;;
6282;SDS011;3174;53.486;9.568;2023-11-21T00:24:16;17.43;;;7.50;;
6282;SDS011;3174;53.486;9.568;2023-11-21T00:26:44;13.63;;;6.33;;
6282;SDS011;3174;53.486;9.568;2023-11-21T00:29:15;13.03;;;6.07;;
6282;SDS011;3174;53.486;9.568;2023-11-21T00:31:43;22.67;;;7.90;;
6282;SDS011;3174;53.486;9.568;2023-11-21T00:34:13;17.57;;;7.60;;
6282;SDS011;3174;53.486;9.568;2023-11-21T00:36:41;17.10;;;8.00;;
6282;SDS011;3174;53.486;9.568;2023-11-21T00:39:09;20.43;;;8.03;;
6282;SDS011;3174;53.486;9.568;2023-11-21T00:41:38;18.43;;;7.47;;
6282;SDS011;3174;53.486;9.568;2023-11-21T00:44:06;19.33;;;7.63;;
6282;SDS011;3174;53.486;9.568;2023-11-21T00:46:34;19.93;;;8.17;;
6282;SDS011;3174;53.486;9.568;2023-11-21T00:49:02;23.33;;;8.90;;
6282;SDS011;3174;53.486;9.568;2023-11-21T00:51:32;25.17;;;9.17;;
6282;SDS011;3174;53.486;9.568;2023-11-21T00:54:00;20.57;;;8.13;;
6282;SDS011;3174;53.486;9.568;2023-11-21T00:56:28;19.37;;;8.60;;
6282;SDS011;3174;53.486;9.568;2023-11-21T00:58:56;17.87;;;7.17;;
6282;SDS011;3174;53.486;9.568;2023-11-21T01:01:24;19.87;;;8.10;;
6282;SDS011;3174;53.486;9.568;2023-11-21T01:03:52;24.07;;;9.90;;
6282;SDS011;3174;53.486;9.568;2023-11-21T01:06:20;17.03;;;7.73;;
6282;SDS011;3174;53.486;9.568;2023-11-21T01:08:49;21.67;;;9.77;;
6282;SDS011;3174;53.486;9.568;2023-11-21T01:11:18;21.20;;;8.97;;
6282;SDS011;3174;53.486;9.568;2023-11-21T01:13:46;22.93;;;8.90;;
6282;SDS011;3174;53.486;9.568;2023-11-21T01:16:14;20.27;;;8.60;;
6282;SDS011;3174;53.486;9.568;2023-11-21T01:18:42;16.43;;;7.83;;
6282;SDS011;3174;53.486;9.568;2023-11-21T01:21:10;14.53;;;7.37;;
6282;SDS011;3174;53.486;9.568;2023-11-21T01:23:38;17.33;;;8.10;;
6282;SDS011;3174;53.486;9.568;2023-11-21T01:26:07;15.27;;;7.23;;
6282;SDS011;3174;53.486;9.568;2023-11-21T01:28:35;13.07;;;6.83;;
6282;SDS011;3174;53.486;9.568;2023-11-21T01:31:04;16.30;;;6.50;;
6282;SDS011;3174;53.486;9.568;2023-11-21T01:33:33;13.30;;;7.13;;
6282;SDS011;3174;53.486;9.568;2023-11-21T01:36:01;15.60;;;6.60;;
6282;SDS011;3174;53.486;9.568;2023-11-21T01:38:29;14.83;;;7.03;;
6282;SDS011;3174;53.486;9.568;2023-11-21T01:40:58;15.67;;;6.97;;
6282;SDS011;3174;53.486;9.568;2023-11-21T01:43:28;16.50;;;8.30;;
6282;SDS011;3174;53.486;9.568;2023-11-21T01:45:58;15.70;;;7.73;;
6282;SDS011;3174;53.486;9.568;2023-11-21T01:48:26;13.87;;;6.93;;
6282;SDS011;3174;53.486;9.568;2023-11-21T01:50:55;12.80;;;6.97;;
6282;SDS011;3174;53.486;9.568;2023-11-21T01:53:23;14.63;;;7.03;;
6282;SDS011;3174;53.486;9.568;2023-11-21T01:55:52;12.37;;;6.00;;
6282;SDS011;3174;53.486;9.568;2023-11-21T01:58:24;11.30;;;6.60;;
6282;SDS011;3174;53.486;9.568;2023-11-21T02:00:53;12.97;;;6.30;;
6282;SDS011;3174;53.486;9.568;2023-11-21T02:03:22;12.73;;;6.27;;
6282;SDS011;3174;53.486;9.568;2023-11-21T02:05:50;18.37;;;7.47;;
6282;SDS011;3174;53.486;9.568;2023-11-21T02:08:18;11.47;;;6.30;;
6282;SDS011;3174;53.486;9.568;2023-11-21T02:10:46;10.57;;;6.27;;
6282;SDS011;3174;53.486;9.568;2023-11-21T02:13:14;8.87;;;5.37;;
6282;SDS011;3174;53.486;9.568;2023-11-21T02:15:43;12.23;;;6.63;;
6282;SDS011;3174;53.486;9.568;2023-11-21T02:18:12;11.03;;;5.37;;
6282;SDS011;3174;53.486;9.568;2023-11-21T02:20:41;12.27;;;6.00;;
6282;SDS011;3174;53.486;9.568;2023-11-21T02:23:11;12.73;;;6.03;;
6282;SDS011;3174;53.486;9.568;2023-11-21T02:25:39;11.00;;;5.50;;
6282;SDS011;3174;53.486;9.568;2023-11-21T02:28:09;9.93;;;4.70;;
6282;SDS011;3174;53.486;9.568;2023-11-21T02:30:39;9.83;;;5.40;;
6282;SDS011;3174;53.486;9.568;2023-11-21T02:33:08;10.27;;;5.50;;
6282;SDS011;3174;53.486;9.568;2023-11-21T02:35:38;9.50;;;5.40;;
6282;SDS011;3174;53.486;9.568;2023-11-21T02:38:06;10.27;;;5.07;;
6282;SDS011;3174;53.486;9.568;2023-11-21T02:40:36;11.63;;;5.00;;
6282;SDS011;3174;53.486;9.568;2023-11-21T02:43:04;8.63;;;4.70;;
6282;SDS011;3174;53.486;9.568;2023-11-21T02:45:32;8.00;;;4.53;;
6282;SDS011;3174;53.486;9.568;2023-11-21T02:48:01;9.47;;;4.97;;
6282;SDS011;3174;53.486;9.568;2023-11-21T02:50:29;10.27;;;4.50;;
6282;SDS011;3174;53.486;9.568;2023-11-21T02:52:57;8.17;;;4.13;;
6282;SDS011;3174;53.486;9.568;2023-11-21T02:55:26;6.80;;;3.90;;
6282;SDS011;3174;53.486;9.568;2023-11-21T02:57:56;8.30;;;4.27;;
6282;SDS011;3174;53.486;9.568;2023-11-21T03:00:24;9.90;;;4.80;;
6282;SDS011;3174;53.486;9.568;2023-11-21T03:02:54;8.20;;;4.47;;
6282;SDS011;3174;53.486;9.568;2023-11-21T03:05:23;8.63;;;4.77;;
6282;SDS011;3174;53.486;9.568;2023-11-21T03:07:51;6.73;;;4.07;;
6282;SDS011;3174;53.486;9.568;2023-11-21T03:10:19;7.43;;;3.80;;
6282;SDS011;3174;53.486;9.568;2023-11-21T03:12:47;7.03;;;4.00;;
6282;SDS011;3174;53.486;9.568;2023-11-21T03:15:16;8.43;;;4.00;;
6282;SDS011;3174;53.486;9.568;2023-11-21T03:17:44;7.13;;;4.07;;
6282;SDS011;3174;53.486;9.568;2023-11-21T03:20:16;5.80;;;3.73;;
6282;SDS011;3174;53.486;9.568;2023-11-21T03:22:43;6.83;;;3.60;;
6282;SDS011;3174;53.486;9.568;2023-11-21T03:25:12;5.10;;;3.40;;
6282;SDS011;3174;53.486;9.568;2023-11-21T03:27:40;7.03;;;3.80;;
6282;SDS011;3174;53.486;9.568;2023-11-21T03:30:08;8.93;;;3.93;;
6282;SDS011;3174;53.486;9.568;2023-11-21T03:32:38;5.53;;;3.33;;
6282;SDS011;3174;53.486;9.568;2023-11-21T03:35:07;6.27;;;3.50;;
6282;SDS011;3174;53.486;9.568;2023-11-21T03:37:35;5.07;;;3.47;;
6282;SDS011;3174;53.486;9.568;2023-11-21T03:40:05;7.77;;;3.50;;
6282;SDS011;3174;53.486;9.568;2023-11-21T03:42:35;5.33;;;3.70;;
6282;SDS011;3174;53.486;9.568;2023-11-21T03:45:03;5.80;;;3.30;;
6282;SDS011;3174;53.486;9.568;2023-11-21T03:47:32;6.77;;;3.90;;
6282;SDS011;3174;53.486;9.568;2023-11-21T03:50:01;6.57;;;3.30;;
6282;SDS011;3174;53.486;9.568;2023-11-21T03:52:30;5.07;;;3.47;;
6282;SDS011;3174;53.486;9.568;2023-11-21T03:54:58;5.07;;;3.43;;
6282;SDS011;3174;53.486;9.568;2023-11-21T03:57:26;5.57;;;3.30;;
6282;SDS011;3174;53.486;9.568;2023-11-21T03:59:55;5.37;;;2.97;;
6282;SDS011;3174;53.486;9.568;2023-11-21T04:02:23;5.57;;;3.27;;
6282;SDS011;3174;53.486;9.568;2023-11-21T04:04:52;4.63;;;3.40;;
6282;SDS011;3174;53.486;9.568;2023-11-21T04:07:21;4.63;;;3.20;;
6282;SDS011;3174;53.486;9.568;2023-11-21T04:09:49;6.40;;;3.27;;
6282;SDS011;3174;53.486;9.568;2023-11-21T04:12:17;4.93;;;3.20;;
6282;SDS011;3174;53.486;9.568;2023-11-21T04:14:45;6.70;;;3.07;;
6282;SDS011;3174;53.486;9.568;2023-11-21T04:17:13;7.80;;;3.73;;
6282;SDS011;3174;53.486;9.568;2023-11-21T04:19:41;6.97;;;3.40;;
6282;SDS011;3174;53.486;9.568;2023-11-21T04:22:09;5.10;;;3.10;;
6282;SDS011;3174;53.486;9.568;2023-11-21T04:24:39;5.00;;;3.60;;
6282;SDS011;3174;53.486;9.568;2023-11-21T04:27:07;8.07;;;3.50;;
6282;SDS011;3174;53.486;9.568;2023-11-21T04:29:34;5.33;;;3.30;;
6282;SDS011;3174;53.486;9.568;2023-11-21T04:32:03;6.10;;;3.47;;
6282;SDS011;3174;53.486;9.568;2023-11-21T04:34:32;5.80;;;3.40;;
6282;SDS011;3174;53.486;9.568;2023-11-21T04:37:01;4.80;;;3.43;;
6282;SDS011;3174;53.486;9.568;2023-11-21T04:39:32;6.03;;;3.67;;
6282;SDS011;3174;53.486;9.568;2023-11-21T04:42:02;5.37;;;3.67;;
6282;SDS011;3174;53.486;9.568;2023-11-21T04:44:30;6.87;;;3.53;;
6282;SDS011;3174;53.486;9.568;2023-11-21T04:46:58;6.63;;;4.23;;
6282;SDS011;3174;53.486;9.568;2023-11-21T04:49:26;5.70;;;3.40;;
6282;SDS011;3174;53.486;9.568;2023-11-21T04:51:54;7.70;;;3.83;;
6282;SDS011;3174;53.486;9.568;2023-11-21T04:54:22;7.83;;;4.67;;
6282;SDS011;3174;53.486;9.568;2023-11-21T04:56:54;6.87;;;4.17;;
6282;SDS011;3174;53.486;9.568;2023-11-21T04:59:23;7.73;;;3.70;;
6282;SDS011;3174;53.486;9.568;2023-11-21T05:01:53;5.90;;;3.83;;
6282;SDS011;3174;53.486;9.568;2023-11-21T05:04:21;5.80;;;3.67;;
6282;SDS011;3174;53.486;9.568;2023-11-21T05:06:49;4.27;;;3.07;;
6282;SDS011;3174;53.486;9.568;2023-11-21T05:09:17;7.23;;;3.90;;
6282;SDS011;3174;53.486;9.568;2023-11-21T05:11:45;5.47;;;3.63;;
6282;SDS011;3174;53.486;9.568;2023-11-21T05:14:13;5.43;;;3.53;;
6282;SDS011;3174;53.486;9.568;2023-11-21T05:16:43;6.70;;;3.90;;
6282;SDS011;3174;53.486;9.568;2023-11-21T05:19:11;6.77;;;3.40;;
6282;SDS011;3174;53.486;9.568;2023-11-21T05:21:39;6.97;;;4.03;;
6282;SDS011;3174;53.486;9.568;2023-11-21T05:24:07;5.33;;;3.43;;
6282;SDS011;3174;53.486;9.568;2023-11-21T05:26:35;6.83;;;3.60;;
6282;SDS011;3174;53.486;9.568;2023-11-21T05:29:05;4.83;;;3.33;;
6282;SDS011;3174;53.486;9.568;2023-11-21T05:31:33;6.00;;;3.53;;
6282;SDS011;3174;53.486;9.568;2023-11-21T05:34:02;6.87;;;4.17;;
6282;SDS011;3174;53.486;9.568;2023-11-21T05:36:31;6.60;;;4.20;;
6282;SDS011;3174;53.486;9.568;2023-11-21T05:39:00;8.10;;;4.27;;
6282;SDS011;3174;53.486;9.568;2023-11-21T05:41:29;7.37;;;4.00;;
6282;SDS011;3174;53.486;9.568;2023-11-21T05:43:57;6.10;;;4.07;;
6282;SDS011;3174;53.486;9.568;2023-11-21T05:46:25;4.63;;;2.97;;
6282;SDS011;3174;53.486;9.568;2023-11-21T05:48:53;6.57;;;3.67;;
6282;SDS011;3174;53.486;9.568;2023-11-21T05:51:23;7.93;;;4.60;;
6282;SDS011;3174;53.486;9.568;2023-11-21T05:53:51;7.13;;;4.30;;
6282;SDS011;3174;53.486;9.568;2023-11-21T05:56:19;6.47;;;4.17;;
6282;SDS011;3174;53.486;9.568;2023-11-21T05:58:47;9.67;;;5.13;;
6282;SDS011;3174;53.486;9.568;2023-11-21T06:01:15;6.10;;;4.10;;
6282;SDS011;3174;53.486;9.568;2023-11-21T06:03:43;6.50;;;3.63;;
6282;SDS011;3174;53.486;9.568;2023-11-21T06:06:12;5.63;;;3.63;;
6282;SDS011;3174;53.486;9.568;2023-11-21T06:08:41;8.50;;;4.03;;
6282;SDS011;3174;53.486;9.568;2023-11-21T06:11:10;7.33;;;4.50;;
6282;SDS011;3174;53.486;9.568;2023-11-21T06:13:38;8.97;;;4.27;;
6282;SDS011;3174;53.486;9.568;2023-11-21T06:16:06;6.70;;;4.10;;
6282;SDS011;3174;53.486;9.568;2023-11-21T06:18:35;6.23;;;3.40;;
6282;SDS011;3174;53.486;9.568;2023-11-21T06:21:03;10.73;;;3.83;;
6282;SDS011;3174;53.486;9.568;2023-11-21T06:23:31;7.50;;;4.07;;
6282;SDS011;3174;53.486;9.568;2023-11-21T06:26:00;6.73;;;3.90;;
6282;SDS011;3174;53.486;9.568;2023-11-21T06:28:28;7.43;;;4.40;;
6282;SDS011;3174;53.486;9.568;2023-11-21T06:30:56;6.67;;;3.70;;
6282;SDS011;3174;53.486;9.568;2023-11-21T06:33:25;12.07;;;4.10;;
6282;SDS011;3174;53.486;9.568;2023-11-21T06:35:54;8.23;;;4.70;;
6282;SDS011;3174;53.486;9.568;2023-11-21T06:38:21;7.07;;;3.50;;
6282;SDS011;3174;53.486;9.568;2023-11-21T06:40:50;7.60;;;4.47;;
6282;SDS011;3174;53.486;9.568;2023-11-21T06:43:19;7.73;;;4.43;;
6282;SDS011;3174;53.486;9.568;2023-11-21T06:45:48;6.30;;;3.90;;
6282;SDS011;3174;53.486;9.568;2023-11-21T06:48:16;6.80;;;3.63;;
6282;SDS011;3174;53.486;9.568;2023-11-21T06:50:44;9.53;;;4.63;;
6282;SDS011;3174;53.486;9.568;2023-11-21T06:53:12;8.33;;;4.83;;
6282;SDS011;3174;53.486;9.568;2023-11-21T06:55:41;6.50;;;3.90;;
6282;SDS011;3174;53.486;9.568;2023-11-21T06:58:09;6.17;;;3.97;;
6282;SDS011;3174;53.486;9.568;2023-11-21T07:00:38;9.33;;;4.90;;
6282;SDS011;3174;53.486;9.568;2023-11-21T07:03:06;5.90;;;3.63;;
6282;SDS011;3174;53.486;9.568;2023-11-21T07:05:34;7.13;;;4.60;;
6282;SDS011;3174;53.486;9.568;2023-11-21T07:08:03;6.87;;;4.00;;
6282;SDS011;3174;53.486;9.568;2023-11-21T07:10:32;7.47;;;4.50;;
6282;SDS011;3174;53.486;9.568;2023-11-21T07:13:01;8.53;;;4.00;;
6282;SDS011;3174;53.486;9.568;2023-11-21T07:15:29;9.00;;;4.73;;
6282;SDS011;3174;53.486;9.568;2023-11-21T07:17:58;7.07;;;4.40;;
6282;SDS011;3174;53.486;9.568;2023-11-21T07:20:27;8.57;;;4.23;;
6282;SDS011;3174;53.486;9.568;2023-11-21T07:22:56;7.53;;;3.90;;
6282;SDS011;3174;53.486;9.568;2023-11-21T07:25:24;7.63;;;4.37;;
6282;SDS011;3174;53.486;9.568;2023-11-21T07:27:52;7.63;;;4.60;;
6282;SDS011;3174;53.486;9.568;2023-11-21T07:30:21;6.57;;;4.40;;
6282;SDS011;3174;53.486;9.568;2023-11-21T07:32:49;8.13;;;4.37;;
6282;SDS011;3174;53.486;9.568;2023-11-21T07:35:19;9.23;;;4.30;;
6282;SDS011;3174;53.486;9.568;2023-11-21T07:37:47;7.10;;;4.30;;
6282;SDS011;3174;53.486;9.568;2023-11-21T07:40:15;10.90;;;5.23;;
6282;SDS011;3174;53.486;9.568;2023-11-21T07:42:44;9.63;;;4.83;;
6282;SDS011;3174;53.486;9.568;2023-11-21T07:45:12;7.17;;;4.23;;
6282;SDS011;3174;53.486;9.568;2023-11-21T07:47:41;6.63;;;3.73;;
6282;SDS011;3174;53.486;9.568;2023-11-21T07:50:10;7.17;;;4.00;;
6282;SDS011;3174;53.486;9.568;2023-11-21T07:52:41;9.60;;;4.50;;
6282;SDS011;3174;53.486;9.568;2023-11-21T07:55:09;7.57;;;4.30;;
6282;SDS011;3174;53.486;9.568;2023-11-21T07:57:38;7.67;;;4.77;;
6282;SDS011;3174;53.486;9.568;2023-11-21T08:00:06;8.40;;;4.43;;
6282;SDS011;3174;53.486;9.568;2023-11-21T08:02:38;6.97;;;4.30;;
6282;SDS011;3174;53.486;9.568;2023-11-21T08:05:09;6.63;;;4.43;;
6282;SDS011;3174;53.486;9.568;2023-11-21T08:07:51;6.90;;;3.87;;
6282;SDS011;3174;53.486;9.568;2023-11-21T08:10:19;7.17;;;3.50;;
6282;SDS011;3174;53.486;9.568;2023-11-21T08:12:48;8.27;;;4.50;;
6282;SDS011;3174;53.486;9.568;2023-11-21T08:15:17;6.07;;;4.00;;
6282;SDS011;3174;53.486;9.568;2023-11-21T08:17:44;7.47;;;3.90;;
6282;SDS011;3174;53.486;9.568;2023-11-21T08:20:13;10.10;;;5.30;;
6282;SDS011;3174;53.486;9.568;2023-11-21T08:22:43;6.00;;;3.97;;
6282;SDS011;3174;53.486;9.568;2023-11-21T08:25:12;5.17;;;3.67;;
6282;SDS011;3174;53.486;9.568;2023-11-21T08:27:41;7.30;;;4.30;;
6282;SDS011;3174;53.486;9.568;2023-11-21T08:30:09;5.57;;;3.60;;
6282;SDS011;3174;53.486;9.568;2023-11-21T08:32:38;11.17;;;4.67;;
6282;SDS011;3174;53.486;9.568;2023-11-21T08:35:07;6.07;;;3.67;;
6282;SDS011;3174;53.486;9.568;2023-11-21T08:37:35;6.70;;;4.30;;
6282;SDS011;3174;53.486;9.568;2023-11-21T08:40:05;6.17;;;3.67;;
6282;SDS011;3174;53.486;9.568;2023-11-21T08:42:37;7.97;;;4.93;;
6282;SDS011;3174;53.486;9.568;2023-11-21T08:45:05;5.70;;;4.10;;
6282;SDS011;3174;53.486;9.568;2023-11-21T08:47:35;8.40;;;4.57;;
6282;SDS011;3174;53.486;9.568;2023-11-21T08:50:03;7.47;;;4.40;;
6282;SDS011;3174;53.486;9.568;2023-11-21T08:52:34;9.63;;;4.67;;
6282;SDS011;3174;53.486;9.568;2023-11-21T08:55:04;7.27;;;4.73;;
6282;SDS011;3174;53.486;9.568;2023-11-21T08:57:34;6.87;;;4.30;;
6282;SDS011;3174;53.486;9.568;2023-11-21T09:00:04;7.50;;;4.63;;
6282;SDS011;3174;53.486;9.568;2023-11-21T09:02:37;7.17;;;4.47;;
6282;SDS011;3174;53.486;9.568;2023-11-21T09:05:05;10.03;;;4.97;;
6282;SDS011;3174;53.486;9.568;2023-11-21T09:07:34;6.83;;;4.63;;
6282;SDS011;3174;53.486;9.568;2023-11-21T09:10:02;8.37;;;4.60;;
6282;SDS011;3174;53.486;9.568;2023-11-21T09:12:30;8.07;;;4.70;;
6282;SDS011;3174;53.486;9.568;2023-11-21T09:14:59;8.50;;;4.20;;
6282;SDS011;3174;53.486;9.568;2023-11-21T09:17:28;7.60;;;4.37;;
6282;SDS011;3174;53.486;9.568;2023-11-21T09:19:56;8.13;;;4.23;;
6282;SDS011;3174;53.486;9.568;2023-11-21T09:22:25;6.03;;;3.77;;
6282;SDS011;3174;53.486;9.568;2023-11-21T09:24:53;8.47;;;4.37;;
6282;SDS011;3174;53.486;9.568;2023-11-21T09:27:23;6.17;;;3.97;;
6282;SDS011;3174;53.486;9.568;2023-11-21T09:29:52;6.70;;;4.20;;
6282;SDS011;3174;53.486;9.568;2023-11-21T09:32:20;6.43;;;3.87;;
6282;SDS011;3174;53.486;9.568;2023-11-21T09:34:50;7.83;;;4.57;;
6282;SDS011;3174;53.486;9.568;2023-11-21T09:37:18;6.27;;;4.10;;
6282;SDS011;3174;53.486;9.568;2023-11-21T09:39:46;6.87;;;4.37;;
6282;SDS011;3174;53.486;9.568;2023-11-21T09:42:15;12.13;;;6.63;;
6282;SDS011;3174;53.486;9.568;2023-11-21T09:44:45;12.33;;;6.83;;
6282;SDS011;3174;53.486;9.568;2023-11-21T09:47:16;23.23;;;11.20;;
6282;SDS011;3174;53.486;9.568;2023-11-21T09:49:47;12.63;;;6.97;;
6282;SDS011;3174;53.486;9.568;2023-11-21T09:52:21;10.43;;;5.47;;
6282;SDS011;3174;53.486;9.568;2023-11-21T09:54:52;8.97;;;5.53;;
6282;SDS011;3174;53.486;9.568;2023-11-21T09:57:20;7.50;;;4.63;;
6282;SDS011;3174;53.486;9.568;2023-11-21T09:59:49;8.73;;;5.67;;
6282;SDS011;3174;53.486;9.568;2023-11-21T10:02:19;9.33;;;5.93;;
6282;SDS011;3174;53.486;9.568;2023-11-21T10:04:50;6.67;;;4.40;;
6282;SDS011;3174;53.486;9.568;2023-11-21T10:07:19;6.03;;;4.33;;
6282;SDS011;3174;53.486;9.568;2023-11-21T10:09:48;5.90;;;4.47;;
6282;SDS011;3174;53.486;9.568;2023-11-21T10:12:17;6.50;;;3.50;;
6282;SDS011;3174;53.486;9.568;2023-11-21T10:14:47;5.80;;;3.60;;
6282;SDS011;3174;53.486;9.568;2023-11-21T10:17:16;4.63;;;2.43;;
6282;SDS011;3174;53.486;9.568;2023-11-21T10:19:46;3.63;;;2.73;;
6282;SDS011;3174;53.486;9.568;2023-11-21T10:22:16;3.27;;;2.70;;
6282;SDS011;3174;53.486;9.568;2023-11-21T10:24:45;3.47;;;2.40;;
6282;SDS011;3174;53.486;9.568;2023-11-21T10:27:19;5.93;;;2.50;;
6282;SDS011;3174;53.486;9.568;2023-11-21T10:29:47;2.33;;;2.10;;
6282;SDS011;3174;53.486;9.568;2023-11-21T10:32:15;3.80;;;2.10;;
6282;SDS011;3174;53.486;9.568;2023-11-21T10:34:55;2.63;;;1.93;;
6282;SDS011;3174;53.486;9.568;2023-11-21T10:37:24;4.80;;;2.17;;
6282;SDS011;3174;53.486;9.568;2023-11-21T10:39:56;2.87;;;2.10;;
6282;SDS011;3174;53.486;9.568;2023-11-21T10:42:25;6.77;;;2.67;;
6282;SDS011;3174;53.486;9.568;2023-11-21T10:44:54;6.30;;;1.80;;
6282;SDS011;3174;53.486;9.568;2023-11-21T10:47:22;3.70;;;2.67;;
6282;SDS011;3174;53.486;9.568;2023-11-21T10:49:51;3.30;;;2.40;;
6282;SDS011;3174;53.486;9.568;2023-11-21T10:52:20;2.60;;;2.10;;
6282;SDS011;3174;53.486;9.568;2023-11-21T10:54:50;18.03;;;7.93;;
6282;SDS011;3174;53.486;9.568;2023-11-21T10:57:18;15.03;;;8.50;;
6282;SDS011;3174;53.486;9.568;2023-11-21T10:59:48;3.93;;;2.50;;
6282;SDS011;3174;53.486;9.568;2023-11-21T11:02:18;1.83;;;1.70;;
6282;SDS011;3174;53.486;9.568;2023-11-21T11:04:51;3.47;;;2.40;;
6282;SDS011;3174;53.486;9.568;2023-11-21T11:07:20;3.90;;;2.27;;
6282;SDS011;3174;53.486;9.568;2023-11-21T11:09:50;4.20;;;2.27;;
6282;SDS011;3174;53.486;9.568;2023-11-21T11:12:18;2.17;;;1.90;;
6282;SDS011;3174;53.486;9.568;2023-11-21T11:14:47;2.63;;;2.07;;
6282;SDS011;3174;53.486;9.568;2023-11-21T11:17:15;3.03;;;1.40;;
6282;SDS011;3174;53.486;9.568;2023-11-21T11:19:47;1.93;;;1.70;;
6282;SDS011;3174;53.486;9.568;2023-11-21T11:28:04;4.77;;;1.90;;
6282;SDS011;3174;53.486;9.568;2023-11-21T11:30:39;2.93;;;1.70;;
6282;SDS011;3174;53.486;9.568;2023-11-21T11:33:14;3.00;;;1.57;;
6282;SDS011;3174;53.486;9.568;2023-11-21T11:35:55;2.33;;;1.77;;
6282;SDS011;3174;53.486;9.568;2023-11-21T11:38:31;2.20;;;1.90;;
6282;SDS011;3174;53.486;9.568;2023-11-21T11:41:02;2.50;;;1.87;;
6282;SDS011;3174;53.486;9.568;2023-11-21T11:43:31;2.63;;;1.90;;
6282;SDS011;3174;53.486;9.568;2023-11-21T11:46:06;3.47;;;2.27;;
6282;SDS011;3174;53.486;9.568;2023-11-21T11:48:34;3.67;;;2.27;;
6282;SDS011;3174;53.486;9.568;2023-11-21T11:51:04;2.73;;;2.50;;
6282;SDS011;3174;53.486;9.568;2023-11-21T11:53:35;2.33;;;1.90;;
6282;SDS011;3174;53.486;9.568;2023-11-21T11:58:55;3.60;;;2.53;;
6282;SDS011;3174;53.486;9.568;2023-11-21T12:01:25;3.80;;;2.20;;
6282;SDS011;3174;53.486;9.568;2023-11-21T12:07:01;3.10;;;2.43;;
6282;SDS011;3174;53.486;9.568;2023-11-21T12:09:31;4.23;;;2.70;;
6282;SDS011;3174;53.486;9.568;2023-11-21T12:12:01;3.40;;;2.73;;
6282;SDS011;3174;53.486;9.568;2023-11-21T12:14:30;1.90;;;1.63;;
6282;SDS011;3174;53.486;9.568;2023-11-21T12:16:58;3.57;;;2.47;;
6282;SDS011;3174;53.486;9.568;2023-11-21T12:19:26;4.17;;;2.47;;
6282;SDS011;3174;53.486;9.568;2023-11-21T12:21:55;2.40;;;1.90;;
6282;SDS011;3174;53.486;9.568;2023-11-21T12:24:22;3.17;;;2.17;;
6282;SDS011;3174;53.486;9.568;2023-11-21T12:26:50;3.13;;;2.10;;
6282;SDS011;3174;53.486;9.568;2023-11-21T12:29:20;2.90;;;1.93;;
6282;SDS011;3174;53.486;9.568;2023-11-21T12:31:49;2.67;;;1.90;;
6282;SDS011;3174;53.486;9.568;2023-11-21T12:34:17;4.10;;;2.10;;
6282;SDS011;3174;53.486;9.568;2023-11-21T12:36:45;6.23;;;2.50;;
6282;SDS011;3174;53.486;9.568;2023-11-21T12:39:13;5.13;;;3.17;;
6282;SDS011;3174;53.486;9.568;2023-11-21T12:41:41;3.20;;;2.20;;
6282;SDS011;3174;53.486;9.568;2023-11-21T12:44:12;2.90;;;1.97;;
6282;SDS011;3174;53.486;9.568;2023-11-21T12:46:43;2.87;;;2.10;;
6282;SDS011;3174;53.486;9.568;2023-11-21T12:49:13;3.37;;;2.07;;
6282;SDS011;3174;53.486;9.568;2023-11-21T12:51:44;2.93;;;1.97;;
6282;SDS011;3174;53.486;9.568;2023-11-21T12:54:13;2.53;;;1.80;;
6282;SDS011;3174;53.486;9.568;2023-11-21T12:56:44;3.57;;;1.70;;
6282;SDS011;3174;53.486;9.568;2023-11-21T12:59:15;1.70;;;1.60;;
6282;SDS011;3174;53.486;9.568;2023-11-21T13:01:46;2.10;;;1.90;;
6282;SDS011;3174;53.486;9.568;2023-11-21T13:04:17;2.77;;;1.77;;
6282;SDS011;3174;53.486;9.568;2023-11-21T13:06:45;2.53;;;1.67;;
6282;SDS011;3174;53.486;9.568;2023-11-21T13:09:13;2.50;;;2.00;;
6282;SDS011;3174;53.486;9.568;2023-11-21T13:11:48;2.30;;;1.80;;
6282;SDS011;3174;53.486;9.568;2023-11-21T13:14:16;2.13;;;1.83;;
6282;SDS011;3174;53.486;9.568;2023-11-21T13:16:45;12.53;;;5.50;;
6282;SDS011;3174;53.486;9.568;2023-11-21T13:19:14;16.80;;;9.17;;
6282;SDS011;3174;53.486;9.568;2023-11-21T13:21:41;12.60;;;7.37;;
6282;SDS011;3174;53.486;9.568;2023-11-21T13:24:10;3.73;;;2.90;;
6282;SDS011;3174;53.486;9.568;2023-11-21T13:26:38;3.97;;;2.93;;
6282;SDS011;3174;53.486;9.568;2023-11-21T13:29:07;4.07;;;3.07;;
6282;SDS011;3174;53.486;9.568;2023-11-21T13:31:35;3.80;;;2.03;;
6282;SDS011;3174;53.486;9.568;2023-11-21T13:34:06;5.53;;;3.40;;
6282;SDS011;3174;53.486;9.568;2023-11-21T13:36:35;3.20;;;2.40;;
6282;SDS011;3174;53.486;9.568;2023-11-21T13:39:03;2.70;;;2.33;;
6282;SDS011;3174;53.486;9.568;2023-11-21T13:41:35;4.07;;;3.07;;
6282;SDS011;3174;53.486;9.568;2023-11-21T13:44:05;3.57;;;2.53;;
6282;SDS011;3174;53.486;9.568;2023-11-21T13:46:43;2.87;;;2.53;;
6282;SDS011;3174;53.486;9.568;2023-11-21T13:49:14;2.70;;;1.70;;
6282;SDS011;3174;53.486;9.568;2023-11-21T13:51:43;3.17;;;1.93;;
6282;SDS011;3174;53.486;9.568;2023-11-21T13:54:14;2.60;;;2.30;;
6282;SDS011;3174;53.486;9.568;2023-11-21T13:56:42;2.90;;;1.90;;
6282;SDS011;3174;53.486;9.568;2023-11-21T13:59:12;2.67;;;2.40;;
6282;SDS011;3174;53.486;9.568;2023-11-21T14:01:47;2.90;;;2.10;;
6282;SDS011;3174;53.486;9.568;2023-11-21T14:04:25;3.17;;;2.40;;
6282;SDS011;3174;53.486;9.568;2023-11-21T14:07:13;2.77;;;2.30;;
6282;SDS011;3174;53.486;9.568;2023-11-21T14:09:59;3.13;;;2.23;;
6282;SDS011;3174;53.486;9.568;2023-11-21T14:12:27;2.70;;;2.00;;
6282;SDS011;3174;53.486;9.568;2023-11-21T14:15:04;2.37;;;2.17;;
6282;SDS011;3174;53.486;9.568;2023-11-21T14:17:36;5.70;;;2.00;;
6282;SDS011;3174;53.486;9.568;2023-11-21T14:20:08;2.33;;;2.00;;
6282;SDS011;3174;53.486;9.568;2023-11-21T14:22:43;2.00;;;1.60;;
6282;SDS011;3174;53.486;9.568;2023-11-21T14:25:11;2.27;;;2.07;;
6282;SDS011;3174;53.486;9.568;2023-11-21T14:27:40;2.27;;;2.00;;
6282;SDS011;3174;53.486;9.568;2023-11-21T14:30:09;2.97;;;2.03;;
6282;SDS011;3174;53.486;9.568;2023-11-21T14:32:39;2.10;;;1.80;;
6282;SDS011;3174;53.486;9.568;2023-11-21T14:35:10;3.00;;;1.77;;
6282;SDS011;3174;53.486;9.568;2023-11-21T14:37:38;2.33;;;1.53;;
6282;SDS011;3174;53.486;9.568;2023-11-21T14:40:06;2.97;;;1.80;;
6282;SDS011;3174;53.486;9.568;2023-11-21T14:42:35;2.73;;;2.00;;
6282;SDS011;3174;53.486;9.568;2023-11-21T14:45:05;4.87;;;2.10;;
6282;SDS011;3174;53.486;9.568;2023-11-21T14:47:35;2.90;;;1.70;;
6282;SDS011;3174;53.486;9.568;2023-11-21T14:50:05;2.80;;;1.80;;
6282;SDS011;3174;53.486;9.568;2023-11-21T14:52:55;2.60;;;1.80;;
6282;SDS011;3174;53.486;9.568;2023-11-21T14:55:25;2.20;;;1.83;;
6282;SDS011;3174;53.486;9.568;2023-11-21T14:57:58;2.90;;;1.90;;
6282;SDS011;3174;53.486;9.568;2023-11-21T15:00:31;2.03;;;1.67;;
6282;SDS011;3174;53.486;9.568;2023-11-21T15:03:12;3.23;;;2.07;;
6282;SDS011;3174;53.486;9.568;2023-11-21T15:05:57;3.60;;;2.27;;
6282;SDS011;3174;53.486;9.568;2023-11-21T15:08:27;5.10;;;2.27;;
6282;SDS011;3174;53.486;9.568;2023-11-21T15:10:58;3.00;;;2.13;;
6282;SDS011;3174;53.486;9.568;2023-11-21T15:13:26;3.10;;;2.07;;
6282;SDS011;3174;53.486;9.568;2023-11-21T15:15:54;3.30;;;2.03;;
6282;SDS011;3174;53.486;9.568;2023-11-21T15:18:22;5.13;;;2.57;;
6282;SDS011;3174;53.486;9.568;2023-11-21T15:20:51;4.13;;;2.20;;
6282;SDS011;3174;53.486;9.568;2023-11-21T15:23:19;2.97;;;2.00;;
6282;SDS011;3174;53.486;9.568;2023-11-21T15:25:48;3.40;;;2.73;;
6282;SDS011;3174;53.486;9.568;2023-11-21T15:28:16;2.10;;;1.90;;
6282;SDS011;3174;53.486;9.568;2023-11-21T15:30:45;2.93;;;1.80;;
6282;SDS011;3174;53.486;9.568;2023-11-21T15:33:16;3.20;;;2.03;;
6282;SDS011;3174;53.486;9.568;2023-11-21T15:35:45;3.13;;;1.70;;
6282;SDS011;3174;53.486;9.568;2023-11-21T15:38:12;3.67;;;2.30;;